Time;durP1;ratioP1;P1;durP2;ratioP2;P2;SDS_P1;SDS_P2;PMS_P1;PMS_P2;Temp;Humidity;BMP_temperature;BMP_pressure;BME280_temperature;BME280_humidity;BME280_pressure;Samples;Min_cycle;Max_cycle;Signal;HPM_P1;HPM_P2
2021/08/20 00:00:02;;;;;;;3.97;1.80;;;19.10;99.90;;;;;;5113025;28;20534;-80
2021/08/20 00:02:32;;;;;;;3.85;1.95;;;19.10;99.90;;;;;;5112803;28;20079;-80
2021/08/20 00:04:59;;;;;;;4.72;1.95;;;19.00;99.90;;;;;;5128760;27;20493;-80
2021/08/20 00:07:26;;;;;;;3.75;1.80;;;19.00;99.90;;;;;;5133549;27;20130;-78
2021/08/20 00:09:55;;;;;;;3.60;1.90;;;19.00;99.90;;;;;;5120720;28;20054;-79
2021/08/20 00:12:22;;;;;;;3.83;1.80;;;19.00;99.90;;;;;;5112916;28;20142;-80
2021/08/20 00:14:49;;;;;;;4.38;1.80;;;18.90;99.90;;;;;;5112900;28;20460;-80
2021/08/20 00:17:16;;;;;;;4.68;1.90;;;18.90;99.90;;;;;;5115188;28;20044;-80
2021/08/20 00:19:45;;;;;;;4.25;1.92;;;18.80;99.90;;;;;;5116458;28;20468;-80
2021/08/20 00:22:12;;;;;;;5.30;2.13;;;18.70;99.90;;;;;;5116385;28;20428;-80
2021/08/20 00:24:39;;;;;;;5.47;2.25;;;18.60;99.90;;;;;;5116248;28;20049;-78
2021/08/20 00:27:07;;;;;;;3.60;1.90;;;18.60;99.90;;;;;;5116373;28;20127;-80
2021/08/20 00:29:34;;;;;;;4.07;2.10;;;18.50;99.90;;;;;;5116437;28;20118;-80
2021/08/20 00:32:01;;;;;;;3.42;1.73;;;18.50;99.90;;;;;;5116243;28;20543;-80
2021/08/20 00:34:29;;;;;;;3.58;1.70;;;18.40;99.90;;;;;;5116122;28;20126;-78
2021/08/20 00:36:59;;;;;;;4.55;1.90;;;18.40;99.90;;;;;;5116196;28;20126;-80
2021/08/20 00:39:27;;;;;;;4.25;1.70;;;18.50;99.90;;;;;;5115963;28;20044;-78
2021/08/20 00:41:54;;;;;;;3.30;1.67;;;18.50;99.90;;;;;;5115910;28;20552;-80
2021/08/20 00:44:22;;;;;;;5.30;2.00;;;18.50;99.90;;;;;;5116256;28;20153;-81
2021/08/20 00:46:49;;;;;;;5.30;2.17;;;18.60;99.90;;;;;;5115988;28;20134;-80
2021/08/20 00:49:17;;;;;;;4.78;2.10;;;18.50;99.90;;;;;;5116138;28;20127;-80
2021/08/20 00:51:44;;;;;;;4.18;1.77;;;18.50;99.90;;;;;;5115945;28;20054;-80
2021/08/20 00:54:17;;;;;;;4.20;1.90;;;18.50;99.90;;;;;;5115665;28;20074;-79
2021/08/20 00:56:46;;;;;;;3.80;1.92;;;18.50;99.90;;;;;;5095687;28;20043;-78
2021/08/20 00:59:14;;;;;;;3.92;2.20;;;18.60;99.90;;;;;;5102347;28;20142;-80
2021/08/20 01:01:42;;;;;;;5.38;2.13;;;18.50;99.90;;;;;;5116094;28;20086;-79
2021/08/20 01:04:09;;;;;;;4.53;1.80;;;18.50;99.90;;;;;;5115091;28;20067;-79
2021/08/20 01:06:38;;;;;;;4.13;1.90;;;18.40;99.90;;;;;;5115461;28;20085;-80
2021/08/20 01:09:05;;;;;;;4.78;1.90;;;18.40;99.90;;;;;;5115271;28;20079;-80
2021/08/20 01:11:34;;;;;;;4.10;2.00;;;18.40;99.90;;;;;;5115119;28;20134;-79
2021/08/20 01:14:01;;;;;;;4.18;2.20;;;18.40;99.90;;;;;;5115742;28;20142;-79
2021/08/20 01:16:30;;;;;;;4.22;2.03;;;18.50;99.90;;;;;;5115569;28;20126;-79
2021/08/20 01:18:57;;;;;;;4.70;1.90;;;18.40;99.90;;;;;;5115053;28;20473;-79
2021/08/20 01:21:26;;;;;;;3.65;2.00;;;18.50;99.90;;;;;;5115266;28;20146;-80
2021/08/20 01:23:56;;;;;;;4.20;1.80;;;18.40;99.90;;;;;;5115340;28;20075;-80
2021/08/20 01:26:25;;;;;;;3.72;1.90;;;18.50;99.90;;;;;;5115278;28;20127;-78
2021/08/20 01:28:54;;;;;;;4.10;1.92;;;18.50;99.90;;;;;;5114177;28;20467;-80
2021/08/20 01:31:21;;;;;;;4.85;1.95;;;18.50;99.90;;;;;;5114986;28;20126;-79
2021/08/20 01:33:48;;;;;;;4.22;1.85;;;18.50;99.90;;;;;;5114599;28;20118;-83
2021/08/20 01:36:16;;;;;;;5.03;1.90;;;18.50;99.90;;;;;;5115165;28;20075;-80
2021/08/20 01:38:49;;;;;;;3.72;1.75;;;18.50;99.90;;;;;;5114658;28;20131;-79
2021/08/20 01:41:17;;;;;;;3.30;1.60;;;18.50;99.90;;;;;;5115254;28;20083;-80
2021/08/20 01:43:45;;;;;;;3.47;1.58;;;18.50;99.90;;;;;;5114866;28;20122;-79
2021/08/20 01:46:13;;;;;;;4.55;1.60;;;18.50;99.90;;;;;;5114856;28;20126;-80
2021/08/20 01:48:48;;;;;;;4.05;1.92;;;18.50;99.90;;;;;;5114545;28;20142;-79
2021/08/20 01:51:16;;;;;;;4.18;1.70;;;18.40;99.90;;;;;;5114910;28;20130;-79
2021/08/20 01:53:44;;;;;;;8.52;1.90;;;18.50;99.90;;;;;;5114317;28;20134;-76
2021/08/20 01:56:16;;;;;;;4.03;1.98;;;18.40;99.90;;;;;;5115050;28;20135;-80
2021/08/20 01:58:45;;;;;;;3.30;1.77;;;18.40;99.90;;;;;;5114614;28;20055;-80
2021/08/20 02:01:13;;;;;;;6.35;2.55;;;18.30;99.90;;;;;;5114403;28;20135;-78
2021/08/20 02:03:40;;;;;;;4.93;2.20;;;18.20;99.90;;;;;;5114404;28;20134;-80
2021/08/20 02:06:08;;;;;;;3.58;1.88;;;18.10;99.90;;;;;;5114598;28;20127;-80
2021/08/20 02:08:36;;;;;;;4.47;1.90;;;18.00;99.90;;;;;;5114107;28;20551;-79
2021/08/20 02:11:03;;;;;;;3.80;1.90;;;18.00;99.90;;;;;;5114466;28;20131;-80
2021/08/20 02:13:31;;;;;;;4.50;1.95;;;18.00;99.90;;;;;;5113933;28;20467;-80
2021/08/20 02:16:00;;;;;;;4.28;2.45;;;18.00;99.90;;;;;;5114061;28;20050;-80
2021/08/20 02:18:27;;;;;;;4.47;2.15;;;18.00;99.90;;;;;;5114176;28;20746;-79
2021/08/20 02:20:54;;;;;;;4.30;2.30;;;18.00;99.90;;;;;;5114083;28;20143;-78
2021/08/20 02:23:21;;;;;;;3.90;2.00;;;17.90;99.90;;;;;;5113992;28;20044;-80
2021/08/20 02:25:49;;;;;;;3.58;1.95;;;17.80;99.90;;;;;;5114113;28;20404;-79
2021/08/20 02:28:16;;;;;;;4.43;2.05;;;17.90;99.90;;;;;;5113594;28;20043;-79
2021/08/20 02:30:43;;;;;;;5.45;2.65;;;17.80;99.90;;;;;;5113968;28;20556;-80
2021/08/20 02:33:11;;;;;;;5.90;2.40;;;17.80;99.90;;;;;;5113874;28;20130;-81
2021/08/20 02:35:38;;;;;;;5.43;2.10;;;17.80;99.90;;;;;;5114052;28;20130;-80
2021/08/20 02:38:05;;;;;;;3.88;2.13;;;17.80;99.90;;;;;;5113603;28;20126;-80
2021/08/20 02:40:32;;;;;;;3.22;1.75;;;17.80;99.90;;;;;;5113882;28;20138;-79
2021/08/20 02:42:59;;;;;;;3.88;2.05;;;17.80;99.90;;;;;;5113744;28;20138;-79
2021/08/20 02:45:27;;;;;;;4.30;2.33;;;17.90;99.90;;;;;;5115137;28;20126;-80
2021/08/20 02:47:54;;;;;;;3.63;1.88;;;17.90;99.90;;;;;;5119159;28;20051;-80
2021/08/20 02:50:23;;;;;;;3.40;1.70;;;17.90;99.90;;;;;;5119631;28;20082;-82
2021/08/20 02:52:50;;;;;;;4.38;1.92;;;17.90;99.90;;;;;;5118853;28;20123;-79
2021/08/20 02:55:17;;;;;;;3.97;2.00;;;18.00;99.90;;;;;;5119502;28;20111;-81
2021/08/20 02:57:44;;;;;;;3.58;1.85;;;18.00;99.90;;;;;;5113842;28;20397;-79
2021/08/20 03:00:13;;;;;;;3.88;1.70;;;18.10;99.90;;;;;;5116302;28;20134;-79
2021/08/20 03:02:40;;;;;;;3.67;1.70;;;18.10;99.90;;;;;;5116021;28;20455;-77
2021/08/20 03:05:09;;;;;;;4.03;1.92;;;18.10;99.90;;;;;;5116414;28;20103;-77
2021/08/20 03:07:37;;;;;;;3.33;1.70;;;18.10;99.90;;;;;;5113885;28;20127;-81
2021/08/20 03:10:05;;;;;;;4.03;2.10;;;18.20;99.90;;;;;;5112889;28;20127;-82
2021/08/20 03:12:32;;;;;;;3.95;1.90;;;18.20;99.90;;;;;;5111266;28;20130;-78
2021/08/20 03:15:00;;;;;;;4.15;1.90;;;18.20;99.90;;;;;;5110144;28;20142;-78
2021/08/20 03:17:28;;;;;;;3.60;1.90;;;18.20;99.90;;;;;;5110350;28;20127;-80
2021/08/20 03:19:54;;;;;;;3.22;1.90;;;18.20;99.90;;;;;;5109674;28;20047;-79
2021/08/20 03:22:22;;;;;;;4.07;1.98;;;18.30;99.90;;;;;;5107560;28;20058;-78
2021/08/20 03:24:50;;;;;;;4.22;1.90;;;18.30;99.90;;;;;;5095375;28;20127;-78
2021/08/20 03:27:18;;;;;;;4.15;2.38;;;18.30;99.90;;;;;;5109723;28;20134;-82
2021/08/20 03:29:45;;;;;;;3.40;1.75;;;18.30;99.90;;;;;;5109488;28;20556;-80
2021/08/20 03:32:12;;;;;;;4.07;2.00;;;18.30;99.90;;;;;;5109657;28;20444;-80
2021/08/20 03:34:39;;;;;;;3.85;1.85;;;18.30;99.90;;;;;;5109185;28;20482;-79
2021/08/20 03:37:06;;;;;;;4.75;1.90;;;18.30;99.90;;;;;;5109689;28;20058;-80
2021/08/20 03:39:33;;;;;;;4.93;1.95;;;18.30;99.90;;;;;;5109455;28;20091;-79
2021/08/20 03:42:02;;;;;;;4.68;2.10;;;18.30;99.90;;;;;;5109601;28;20050;-81
2021/08/20 03:44:29;;;;;;;5.07;1.92;;;18.30;99.90;;;;;;5109524;28;20464;-78
2021/08/20 03:46:56;;;;;;;3.90;2.03;;;18.30;99.90;;;;;;5109925;28;20130;-79
2021/08/20 03:49:23;;;;;;;3.95;1.98;;;18.20;99.90;;;;;;5109284;28;20056;-79
2021/08/20 03:51:50;;;;;;;4.13;1.90;;;18.20;99.90;;;;;;5111262;28;20396;-78
2021/08/20 03:54:18;;;;;;;3.30;1.65;;;18.20;99.90;;;;;;5113347;28;20580;-80
2021/08/20 03:56:45;;;;;;;3.90;2.00;;;18.20;99.90;;;;;;5113350;28;20047;-78
2021/08/20 03:59:13;;;;;;;4.00;2.00;;;18.20;99.90;;;;;;5113341;28;20142;-79
2021/08/20 04:01:40;;;;;;;3.75;1.83;;;18.20;99.90;;;;;;5114910;28;20131;-79
2021/08/20 04:04:07;;;;;;;3.85;1.98;;;18.20;99.90;;;;;;5116457;28;20047;-81
2021/08/20 04:06:34;;;;;;;4.30;1.80;;;18.20;99.90;;;;;;5116859;28;20044;-81
2021/08/20 04:09:01;;;;;;;3.38;1.80;;;18.20;99.90;;;;;;5116770;28;20075;-79
2021/08/20 04:11:28;;;;;;;5.57;1.80;;;18.20;99.90;;;;;;5116411;28;20592;-79
2021/08/20 04:13:56;;;;;;;3.95;2.17;;;18.20;99.90;;;;;;5116629;28;20131;-78
2021/08/20 04:16:25;;;;;;;5.10;2.15;;;18.20;99.90;;;;;;5116174;28;20048;-79
2021/08/20 04:18:52;;;;;;;4.72;1.83;;;18.20;99.90;;;;;;5115534;28;20139;-79
2021/08/20 04:21:19;;;;;;;3.63;1.90;;;18.20;99.90;;;;;;5116512;27;20142;-79
2021/08/20 04:23:46;;;;;;;6.47;1.90;;;18.20;99.90;;;;;;5116421;28;20056;-80
2021/08/20 04:26:13;;;;;;;3.58;1.95;;;18.20;99.90;;;;;;5116303;28;20138;-79
2021/08/20 04:28:41;;;;;;;3.60;1.77;;;18.20;99.90;;;;;;5116297;28;20067;-79
2021/08/20 04:31:08;;;;;;;4.25;1.98;;;18.10;99.90;;;;;;5116294;28;20473;-79
2021/08/20 04:33:38;;;;;;;3.35;1.80;;;18.10;99.90;;;;;;5116546;28;20130;-78
2021/08/20 04:36:05;;;;;;;4.40;1.90;;;18.20;99.90;;;;;;5116326;28;20138;-79
2021/08/20 04:38:32;;;;;;;3.05;1.50;;;18.20;99.90;;;;;;5116187;28;20119;-78
2021/08/20 04:40:59;;;;;;;3.63;1.70;;;18.20;99.90;;;;;;5116381;28;20134;-80
2021/08/20 04:43:26;;;;;;;3.30;1.50;;;18.20;99.90;;;;;;5116018;28;20564;-78
2021/08/20 04:45:53;;;;;;;6.00;1.80;;;18.20;99.90;;;;;;5115959;28;20139;-78
2021/08/20 04:48:20;;;;;;;3.10;1.60;;;18.20;99.90;;;;;;5116058;28;20074;-79
2021/08/20 04:50:51;;;;;;;3.78;1.77;;;18.20;99.90;;;;;;5116064;28;20126;-78
2021/08/20 04:53:18;;;;;;;3.53;1.80;;;18.20;99.90;;;;;;5115764;28;20477;-78
2021/08/20 04:55:46;;;;;;;4.60;1.95;;;18.20;99.90;;;;;;5116061;28;20131;-78
2021/08/20 04:58:13;;;;;;;3.90;1.88;;;18.20;99.90;;;;;;5115438;28;20580;-78
2021/08/20 05:00:46;;;;;;;3.97;1.65;;;18.20;99.90;;;;;;5115758;28;20083;-76
2021/08/20 05:03:14;;;;;;;4.45;1.95;;;18.20;99.90;;;;;;5115697;28;20416;-79
2021/08/20 05:05:41;;;;;;;3.72;1.73;;;18.20;99.90;;;;;;5115742;28;20039;-78
2021/08/20 05:08:10;;;;;;;3.65;1.90;;;18.20;99.90;;;;;;5115562;28;20463;-78
2021/08/20 05:10:38;;;;;;;4.25;1.90;;;18.20;99.90;;;;;;5115607;28;20139;-79
2021/08/20 05:13:06;;;;;;;3.85;2.10;;;18.20;99.90;;;;;;5115484;28;20040;-79
2021/08/20 05:15:33;;;;;;;4.65;1.80;;;18.20;99.90;;;;;;5115616;28;20413;-79
2021/08/20 05:18:01;;;;;;;4.72;1.77;;;18.10;99.90;;;;;;5115416;28;20130;-78
2021/08/20 05:20:29;;;;;;;4.72;2.10;;;18.10;99.90;;;;;;5115245;28;20047;-79
2021/08/20 05:22:57;;;;;;;3.70;1.85;;;18.10;99.90;;;;;;5115243;28;20130;-79
2021/08/20 05:25:31;;;;;;;3.15;1.80;;;18.10;99.90;;;;;;5115205;28;20134;-80
2021/08/20 05:27:59;;;;;;;3.47;1.80;;;18.10;99.90;;;;;;5115388;28;20130;-80
2021/08/20 05:30:26;;;;;;;4.20;2.00;;;18.20;99.90;;;;;;5114982;28;20500;-78
2021/08/20 05:32:53;;;;;;;3.50;2.05;;;18.20;99.90;;;;;;5115168;28;20047;-78
2021/08/20 05:35:20;;;;;;;4.30;1.70;;;18.20;99.90;;;;;;5115985;28;20130;-79
2021/08/20 05:37:48;;;;;;;5.70;1.90;;;18.20;99.90;;;;;;5114737;28;20050;-78
2021/08/20 05:40:16;;;;;;;4.72;2.10;;;18.20;99.90;;;;;;5115058;28;20401;-79
2021/08/20 05:42:44;;;;;;;3.75;1.80;;;18.20;99.90;;;;;;5114753;28;20083;-79
2021/08/20 05:45:12;;;;;;;6.35;2.40;;;18.20;99.90;;;;;;5114801;28;20047;-80
2021/08/20 05:47:39;;;;;;;4.30;2.00;;;18.20;99.90;;;;;;5114813;28;20075;-79
2021/08/20 05:50:08;;;;;;;6.07;2.00;;;18.20;99.90;;;;;;5114660;28;20126;-79
2021/08/20 05:52:37;;;;;;;4.32;1.90;;;18.30;99.90;;;;;;5114583;28;20050;-78
2021/08/20 05:55:07;;;;;;;3.92;1.95;;;18.30;99.90;;;;;;5114767;28;20039;-77
2021/08/20 05:57:34;;;;;;;3.83;1.80;;;18.40;99.90;;;;;;5114605;28;20442;-78
2021/08/20 06:00:04;;;;;;;4.63;1.70;;;18.40;99.90;;;;;;5114461;28;20051;-80
2021/08/20 06:02:31;;;;;;;3.60;1.83;;;18.40;99.90;;;;;;5114453;28;20142;-80
2021/08/20 06:04:58;;;;;;;4.40;2.03;;;18.40;99.90;;;;;;5114317;28;20044;-78
2021/08/20 06:07:26;;;;;;;3.67;1.98;;;18.40;99.90;;;;;;5114371;28;20473;-76
2021/08/20 06:09:53;;;;;;;3.88;1.85;;;18.40;99.90;;;;;;5114412;28;20096;-77
2021/08/20 06:12:20;;;;;;;3.95;1.90;;;18.40;99.90;;;;;;5114147;28;20047;-80
2021/08/20 06:14:47;;;;;;;6.43;2.22;;;18.40;99.90;;;;;;5113819;28;20135;-79
2021/08/20 06:17:15;;;;;;;5.50;1.95;;;18.40;99.90;;;;;;5114190;28;20416;-79
2021/08/20 06:19:42;;;;;;;3.72;1.70;;;18.50;99.90;;;;;;5113913;28;20062;-80
2021/08/20 06:22:09;;;;;;;3.47;1.90;;;18.50;99.90;;;;;;5114219;28;20134;-78
2021/08/20 06:24:36;;;;;;;4.78;2.00;;;18.50;99.90;;;;;;5113922;28;20051;-79
2021/08/20 06:27:04;;;;;;;3.20;1.70;;;18.60;99.90;;;;;;5114074;28;20130;-79
2021/08/20 06:29:31;;;;;;;3.17;1.60;;;18.70;99.90;;;;;;5113890;28;20043;-79
2021/08/20 06:31:59;;;;;;;3.97;1.73;;;18.80;99.90;;;;;;5113888;28;20044;-78
2021/08/20 06:34:27;;;;;;;4.30;1.90;;;18.80;99.90;;;;;;5114119;28;20131;-79
2021/08/20 06:36:54;;;;;;;4.00;2.00;;;18.90;99.90;;;;;;5114057;28;20090;-78
2021/08/20 06:39:21;;;;;;;5.13;1.85;;;19.00;99.90;;;;;;5113844;28;20043;-77
2021/08/20 06:41:48;;;;;;;3.80;1.85;;;19.00;99.90;;;;;;5113740;28;20492;-76
2021/08/20 06:44:15;;;;;;;3.72;1.80;;;19.10;99.90;;;;;;5113725;28;20580;-78
2021/08/20 06:46:42;;;;;;;3.97;1.98;;;19.20;99.90;;;;;;5113569;28;20044;-79
2021/08/20 06:49:10;;;;;;;4.30;1.95;;;19.20;99.90;;;;;;5113931;28;20130;-78
2021/08/20 06:51:39;;;;;;;4.00;1.70;;;19.30;99.90;;;;;;5113804;28;20130;-78
2021/08/20 06:54:06;;;;;;;3.95;1.85;;;19.30;99.90;;;;;;5113676;28;20043;-78
2021/08/20 06:56:33;;;;;;;4.43;1.90;;;19.30;99.90;;;;;;5113706;28;20058;-78
2021/08/20 06:59:00;;;;;;;4.07;2.10;;;19.30;99.90;;;;;;5113316;28;20576;-79
2021/08/20 07:01:27;;;;;;;3.70;2.00;;;19.30;99.90;;;;;;5113896;28;20135;-78
2021/08/20 07:03:55;;;;;;;4.15;2.30;;;19.40;99.90;;;;;;5113647;28;20139;-79
2021/08/20 07:06:24;;;;;;;4.70;2.30;;;19.40;99.90;;;;;;5113511;28;20131;-79
2021/08/20 07:08:55;;;;;;;4.68;2.00;;;19.40;99.90;;;;;;5113489;28;20138;-77
2021/08/20 07:11:25;;;;;;;5.50;2.20;;;19.30;99.90;;;;;;5113325;28;20123;-78
2021/08/20 07:13:54;;;;;;;4.15;2.20;;;19.40;99.90;;;;;;5113866;28;20131;-78
2021/08/20 07:16:21;;;;;;;5.05;2.38;;;19.40;99.90;;;;;;5113514;28;20078;-80
2021/08/20 07:18:48;;;;;;;5.47;2.17;;;19.40;99.90;;;;;;5113376;28;20040;-79
2021/08/20 07:21:16;;;;;;;3.15;2.10;;;19.50;99.90;;;;;;5113301;28;20142;-78
2021/08/20 07:23:43;;;;;;;4.60;2.13;;;19.50;99.90;;;;;;5113239;28;20048;-77
2021/08/20 07:26:13;;;;;;;3.72;2.00;;;19.50;99.90;;;;;;5113694;28;20135;-78
2021/08/20 07:28:41;;;;;;;3.92;1.80;;;19.60;99.90;;;;;;5117522;28;20044;-77
2021/08/20 07:31:09;;;;;;;5.03;2.22;;;19.70;99.90;;;;;;5117576;28;20142;-78
2021/08/20 07:33:36;;;;;;;4.15;2.30;;;19.70;99.90;;;;;;5117446;28;20126;-78
2021/08/20 07:36:04;;;;;;;4.05;2.10;;;19.70;99.90;;;;;;5118285;28;20135;-78
2021/08/20 07:38:31;;;;;;;3.50;1.98;;;19.80;99.90;;;;;;5117419;28;20051;-74
2021/08/20 07:40:58;;;;;;;4.85;2.03;;;19.80;99.90;;;;;;5117211;28;20518;-77
2021/08/20 07:43:27;;;;;;;3.60;2.03;;;19.90;99.90;;;;;;5119066;28;20139;-78
2021/08/20 07:45:55;;;;;;;3.95;2.08;;;19.90;99.90;;;;;;5117185;28;20123;-78
2021/08/20 07:48:22;;;;;;;6.13;2.45;;;20.00;99.80;;;;;;5117258;28;20044;-78
2021/08/20 07:50:49;;;;;;;4.10;1.90;;;20.00;99.50;;;;;;5116936;28;20044;-78
2021/08/20 07:53:17;;;;;;;5.25;2.55;;;20.10;99.30;;;;;;5116894;28;20078;-80
2021/08/20 07:55:44;;;;;;;4.47;2.28;;;20.10;98.80;;;;;;5117085;28;20079;-77
2021/08/20 07:58:11;;;;;;;4.65;2.13;;;20.20;98.90;;;;;;5117122;28;20367;-77
2021/08/20 08:00:40;;;;;;;4.60;2.55;;;20.20;98.90;;;;;;5118214;28;20581;-78
2021/08/20 08:03:07;;;;;;;4.03;2.15;;;20.30;98.50;;;;;;5116998;28;20046;-76
2021/08/20 08:05:34;;;;;;;5.85;2.55;;;20.30;98.40;;;;;;5116735;28;20134;-77
2021/08/20 08:08:02;;;;;;;4.90;2.72;;;20.30;97.80;;;;;;5116888;28;20135;-78
2021/08/20 08:10:29;;;;;;;4.35;2.20;;;20.30;97.70;;;;;;5116864;28;20126;-78
2021/08/20 08:12:56;;;;;;;4.35;2.03;;;20.20;98.00;;;;;;5116665;28;20048;-79
2021/08/20 08:15:23;;;;;;;4.53;2.30;;;20.20;98.00;;;;;;5116633;28;20130;-77
2021/08/20 08:17:52;;;;;;;4.13;2.17;;;20.30;98.10;;;;;;5116487;28;20130;-78
2021/08/20 08:20:20;;;;;;;4.10;2.20;;;20.30;98.00;;;;;;5115297;28;20051;-76
2021/08/20 08:22:47;;;;;;;4.72;2.10;;;20.40;98.20;;;;;;5115400;28;20126;-76
2021/08/20 08:25:16;;;;;;;4.35;2.15;;;20.40;98.10;;;;;;5115376;28;20438;-77
2021/08/20 08:27:55;;;;;;;4.45;2.20;;;20.50;97.70;;;;;;5117543;28;20492;-78
2021/08/20 08:30:23;;;;;;;4.30;1.95;;;20.50;97.60;;;;;;5115356;28;20386;-76
2021/08/20 08:32:51;;;;;;;4.15;2.05;;;20.60;97.60;;;;;;5118286;28;20130;-78
2021/08/20 08:35:19;;;;;;;4.07;2.15;;;20.70;97.40;;;;;;5115879;28;20047;-78
2021/08/20 08:37:46;;;;;;;3.65;1.98;;;20.80;97.40;;;;;;5114728;28;20048;-79
2021/08/20 08:40:13;;;;;;;3.75;2.00;;;20.80;97.30;;;;;;5118002;28;20107;-77
2021/08/20 08:42:40;;;;;;;3.42;1.80;;;20.90;97.20;;;;;;5118536;28;20104;-77
2021/08/20 08:45:08;;;;;;;6.25;2.25;;;21.00;97.30;;;;;;5117700;28;20587;-76
2021/08/20 08:47:37;;;;;;;4.00;2.42;;;21.00;97.00;;;;;;5117010;28;20138;-75
2021/08/20 08:50:10;;;;;;;4.70;2.50;;;21.00;96.60;;;;;;5114923;28;20044;-78
2021/08/20 08:52:38;;;;;;;5.10;2.47;;;21.00;96.60;;;;;;5115236;28;20130;-78
2021/08/20 08:55:08;;;;;;;4.30;2.20;;;21.00;96.60;;;;;;5115027;28;20131;-76
2021/08/20 08:57:35;;;;;;;4.57;2.50;;;21.00;96.80;;;;;;5114872;28;20043;-76
2021/08/20 09:00:03;;;;;;;4.95;2.40;;;21.00;96.60;;;;;;5115293;28;20449;-78
2021/08/20 09:02:33;;;;;;;5.10;2.83;;;21.00;96.40;;;;;;5114934;28;20126;-78
2021/08/20 09:05:03;;;;;;;4.50;2.47;;;21.00;96.00;;;;;;5115201;28;20565;-75
2021/08/20 09:07:34;;;;;;;4.60;2.13;;;21.00;95.90;;;;;;5116183;28;20122;-79
2021/08/20 09:10:17;;;;;;;5.20;2.10;;;21.00;96.00;;;;;;5116501;28;20055;-78
2021/08/20 09:12:55;;;;;;;4.40;2.20;;;21.10;96.00;;;;;;5114801;28;20122;-79
2021/08/20 09:15:25;;;;;;;3.97;1.83;;;21.20;96.00;;;;;;5114631;28;20130;-78
2021/08/20 09:17:54;;;;;;;5.28;2.38;;;21.30;96.10;;;;;;5114693;28;20083;-77
2021/08/20 09:20:25;;;;;;;4.13;2.50;;;21.40;95.90;;;;;;5076021;28;1099091;-78
2021/08/20 09:22:56;;;;;;;3.83;1.90;;;21.40;95.20;;;;;;5113606;28;20126;-79
2021/08/20 09:25:35;;;;;;;3.20;1.60;;;21.50;95.00;;;;;;5115078;28;20126;-80
2021/08/20 09:28:21;;;;;;;3.83;1.70;;;21.50;94.90;;;;;;5115443;28;20131;-78
2021/08/20 09:31:05;;;;;;;3.45;1.75;;;21.50;94.60;;;;;;5115045;28;20138;-80
2021/08/20 09:33:34;;;;;;;3.10;1.63;;;21.60;94.50;;;;;;5118286;27;20126;-79
2021/08/20 09:36:05;;;;;;;3.67;1.60;;;21.70;94.30;;;;;;5131353;27;20739;-78
2021/08/20 09:38:37;;;;;;;3.08;1.58;;;21.70;94.10;;;;;;5121456;27;20047;-80
2021/08/20 09:41:08;;;;;;;2.92;1.33;;;21.80;94.20;;;;;;5116386;27;20090;-80
2021/08/20 09:43:37;;;;;;;3.40;1.70;;;21.80;94.30;;;;;;5126280;27;20052;-79
2021/08/20 09:46:08;;;;;;;3.30;2.00;;;21.90;93.90;;;;;;5121249;27;20040;-77
2021/08/20 09:48:51;;;;;;;3.50;1.90;;;21.90;93.70;;;;;;5114543;28;20067;-78
2021/08/20 09:51:45;;;;;;;3.28;1.60;;;21.90;93.40;;;;;;5116653;28;20067;-78
2021/08/20 09:54:17;;;;;;;2.78;1.58;;;21.90;93.30;;;;;;5115933;28;20470;-79
2021/08/20 09:56:46;;;;;;;3.67;1.58;;;22.00;93.00;;;;;;5117466;28;20123;-77
2021/08/20 09:59:15;;;;;;;2.92;1.30;;;22.00;92.60;;;;;;5114627;28;20102;-77
2021/08/20 10:01:44;;;;;;;3.35;1.42;;;22.10;92.50;;;;;;5113762;27;20043;-75
2021/08/20 10:04:13;;;;;;;3.97;1.90;;;22.10;92.40;;;;;;5114541;28;20438;-78
2021/08/20 10:06:41;;;;;;;2.72;1.33;;;22.20;92.00;;;;;;5115690;28;20131;-76
2021/08/20 10:09:11;;;;;;;3.20;1.50;;;22.30;91.90;;;;;;5114450;28;20568;-78
2021/08/20 10:11:43;;;;;;;3.72;1.73;;;22.30;91.70;;;;;;5115613;28;20138;-77
2021/08/20 10:14:11;;;;;;;3.25;1.67;;;22.40;91.30;;;;;;5114779;28;20131;-81
2021/08/20 10:16:40;;;;;;;3.05;1.60;;;22.50;91.00;;;;;;5119098;27;20074;-79
2021/08/20 10:19:10;;;;;;;3.58;1.80;;;22.60;90.80;;;;;;5114941;27;20552;-80
2021/08/20 10:21:40;;;;;;;4.57;1.92;;;22.60;90.50;;;;;;5123732;27;20051;-78
2021/08/20 10:24:09;;;;;;;3.67;1.90;;;22.60;90.40;;;;;;5111484;27;20840;-78
2021/08/20 10:26:42;;;;;;;2.80;1.50;;;22.60;90.30;;;;;;5114147;28;20505;-76
2021/08/20 10:29:10;;;;;;;3.03;1.58;;;22.60;90.60;;;;;;5117413;27;20130;-77
2021/08/20 10:31:38;;;;;;;3.60;1.98;;;22.60;90.70;;;;;;5115052;28;20047;-79
2021/08/20 10:34:36;;;;;;;3.50;1.90;;;22.70;91.50;;;;;;5108961;27;20103;-77
2021/08/20 10:37:10;;;;;;;3.60;2.05;;;22.70;91.50;;;;;;5107186;28;20039;-79
2021/08/20 10:39:39;;;;;;;3.65;1.90;;;22.70;91.60;;;;;;5114112;28;20087;-76
2021/08/20 10:42:10;;;;;;;4.18;1.80;;;22.70;91.90;;;;;;5113682;28;20511;-79
2021/08/20 10:44:42;;;;;;;4.68;2.00;;;22.80;91.90;;;;;;5113653;28;20572;-78
2021/08/20 10:47:21;;;;;;;4.38;2.20;;;22.80;91.70;;;;;;5113904;28;20075;-77
2021/08/20 10:49:50;;;;;;;4.20;2.03;;;22.80;91.80;;;;;;5114441;28;20131;-79
2021/08/20 10:52:29;;;;;;;4.43;1.90;;;22.80;91.80;;;;;;5113990;28;20467;-78
2021/08/20 10:55:29;;;;;;;3.97;2.05;;;22.80;91.90;;;;;;5113964;28;20142;-79
2021/08/20 10:58:12;;;;;;;5.40;2.00;;;22.80;91.40;;;;;;5113748;28;20122;-77
2021/08/20 11:00:54;;;;;;;4.30;1.85;;;22.90;91.10;;;;;;5113659;28;20044;-79
2021/08/20 11:03:45;;;;;;;3.10;1.70;;;23.00;91.60;;;;;;5113696;28;20077;-79
2021/08/20 11:06:51;;;;;;;3.60;1.80;;;23.10;91.70;;;;;;5113706;28;20046;-80
2021/08/20 11:09:42;;;;;;;3.92;2.00;;;23.20;91.50;;;;;;5113766;28;20051;-75
2021/08/20 11:12:09;;;;;;;3.97;2.10;;;23.30;90.50;;;;;;5113464;28;20489;-77
2021/08/20 11:14:38;;;;;;;3.63;1.80;;;23.30;89.30;;;;;;5114051;28;20046;-79
2021/08/20 11:17:07;;;;;;;3.47;1.75;;;23.30;89.10;;;;;;5116679;28;20067;-78
2021/08/20 11:19:59;;;;;;;4.00;2.00;;;23.30;88.50;;;;;;5115683;28;20379;-78
2021/08/20 11:22:31;;;;;;;4.18;2.20;;;23.40;89.10;;;;;;5113804;28;20086;-79
2021/08/20 11:25:25;;;;;;;3.95;2.00;;;23.50;88.50;;;;;;5113636;28;20050;-79
2021/08/20 11:28:05;;;;;;;4.85;2.05;;;23.50;87.90;;;;;;5113424;28;20043;-79
2021/08/20 11:30:39;;;;;;;3.88;1.98;;;23.50;86.20;;;;;;5113255;28;20047;-80
2021/08/20 11:33:16;;;;;;;2.92;1.63;;;23.50;85.20;;;;;;5113451;28;20043;-79
2021/08/20 11:35:47;;;;;;;2.70;1.70;;;23.60;86.90;;;;;;5113284;28;20499;-79
2021/08/20 11:38:27;;;;;;;3.70;1.77;;;23.60;87.00;;;;;;5113486;28;20130;-79
2021/08/20 11:40:55;;;;;;;4.13;1.95;;;23.70;87.30;;;;;;5113402;28;20070;-80
2021/08/20 11:43:23;;;;;;;4.25;2.00;;;23.80;86.30;;;;;;5113057;28;20615;-79
2021/08/20 11:46:01;;;;;;;3.60;2.00;;;23.90;83.50;;;;;;5113287;28;20044;-79
2021/08/20 11:48:29;;;;;;;4.13;2.22;;;24.00;82.70;;;;;;5113115;28;20059;-79
2021/08/20 11:50:59;;;;;;;3.20;1.88;;;24.00;81.80;;;;;;5113325;28;20047;-79
2021/08/20 11:53:27;;;;;;;4.70;2.15;;;24.10;82.10;;;;;;5113130;28;20048;-80
2021/08/20 11:56:10;;;;;;;4.03;2.33;;;24.20;82.30;;;;;;5113186;28;20131;-79
2021/08/20 11:58:37;;;;;;;4.22;2.05;;;24.20;81.60;;;;;;5116471;28;20071;-78
2021/08/20 12:01:06;;;;;;;4.43;2.60;;;24.20;79.20;;;;;;5118491;28;20131;-78
2021/08/20 12:03:35;;;;;;;3.53;2.35;;;24.20;80.30;;;;;;5113547;28;20135;-80
2021/08/20 12:06:12;;;;;;;4.07;2.60;;;24.10;81.30;;;;;;5113139;28;20043;-78
2021/08/20 12:08:40;;;;;;;3.83;2.50;;;24.00;83.00;;;;;;5112903;28;20083;-79
2021/08/20 12:11:09;;;;;;;4.93;2.10;;;24.00;82.80;;;;;;5111590;28;20135;-78
2021/08/20 12:13:44;;;;;;;3.75;1.90;;;24.00;83.30;;;;;;5114027;28;20063;-80
2021/08/20 12:16:31;;;;;;;3.72;2.08;;;24.00;82.70;;;;;;5119196;27;20127;-79
2021/08/20 12:19:03;;;;;;;3.42;1.90;;;24.10;82.70;;;;;;5116367;28;20051;-78
2021/08/20 12:21:33;;;;;;;3.33;1.90;;;24.30;82.80;;;;;;5116438;28;20051;-80
2021/08/20 12:24:04;;;;;;;3.40;1.90;;;24.40;82.60;;;;;;5116667;28;20457;-79
2021/08/20 12:26:32;;;;;;;3.47;2.30;;;24.50;81.10;;;;;;5116615;27;20509;-78
2021/08/20 12:29:14;;;;;;;3.45;1.85;;;24.60;78.50;;;;;;5116268;28;20075;-80
2021/08/20 12:31:56;;;;;;;3.83;1.88;;;24.60;79.00;;;;;;5116401;28;20050;-79
2021/08/20 12:34:32;;;;;;;4.50;2.40;;;24.60;79.10;;;;;;5115946;28;20050;-78
2021/08/20 12:37:01;;;;;;;4.22;1.85;;;24.60;77.40;;;;;;5116132;28;20100;-78
2021/08/20 12:39:39;;;;;;;3.08;1.70;;;24.60;76.90;;;;;;5115715;27;20135;-79
2021/08/20 12:42:20;;;;;;;3.70;1.90;;;24.50;77.00;;;;;;5115883;28;20464;-77
2021/08/20 12:44:48;;;;;;;3.30;1.92;;;24.50;78.40;;;;;;5116594;28;20043;-79
2021/08/20 12:47:16;;;;;;;3.53;1.80;;;24.60;77.90;;;;;;5115074;28;20130;-79
2021/08/20 12:50:00;;;;;;;3.60;1.90;;;24.70;78.30;;;;;;5112705;28;20108;-80
2021/08/20 12:52:27;;;;;;;3.80;2.17;;;24.70;76.60;;;;;;5113207;28;20048;-79
2021/08/20 12:54:54;;;;;;;3.88;1.90;;;24.70;75.90;;;;;;5103980;28;20083;-79
2021/08/20 12:57:23;;;;;;;3.20;1.50;;;24.60;74.50;;;;;;5100647;28;20055;-79
2021/08/20 13:00:00;;;;;;;3.08;1.55;;;24.70;74.00;;;;;;5112286;28;20126;-78